createdAt,value
2018-09-24T00:00:20.673Z,1022.82
2018-09-24T00:01:20.562Z,1022.85
2018-09-24T00:02:20.524Z,1022.84
2018-09-24T00:03:20.499Z,1022.83
2018-09-24T00:04:20.591Z,1022.86
2018-09-24T00:05:20.458Z,1022.87
2018-09-24T00:06:20.519Z,1022.88
2018-09-24T00:07:20.510Z,1022.86
2018-09-24T00:08:20.370Z,1022.88
2018-09-24T00:09:20.421Z,1022.93
2018-09-24T00:10:20.320Z,1022.91
2018-09-24T00:11:20.451Z,1022.97
2018-09-24T00:12:20.270Z,1022.95
2018-09-24T00:13:20.239Z,1022.96
2018-09-24T00:14:20.362Z,1023.03
2018-09-24T00:15:20.189Z,1023.04
2018-09-24T00:16:20.272Z,1022.99
2018-09-24T00:17:20.132Z,1023.00
2018-09-24T00:18:20.117Z,1023.00
2018-09-24T00:19:20.083Z,1023.06
2018-09-24T00:20:20.206Z,1023.00
2018-09-24T00:21:20.037Z,1023.07
2018-09-24T00:22:20.108Z,1023.07
2018-09-24T00:23:20.111Z,1023.06
2018-09-24T00:24:19.949Z,1023.09
2018-09-24T00:25:20.035Z,1023.14
2018-09-24T00:26:19.898Z,1023.15
2018-09-24T00:27:19.939Z,1023.17
2018-09-24T00:28:19.837Z,1023.20
2018-09-24T00:29:19.952Z,1023.26
2018-09-24T00:30:19.792Z,1023.28
2018-09-24T00:31:19.862Z,1023.28
2018-09-24T00:32:19.739Z,1023.30
2018-09-24T00:33:19.880Z,1023.34
2018-09-24T00:34:19.679Z,1023.42
2018-09-24T00:35:19.792Z,1023.38
2018-09-24T00:36:19.636Z,1023.40
2018-09-24T00:37:19.699Z,1023.42
2018-09-24T00:38:19.579Z,1023.47
2018-09-24T00:39:19.552Z,1023.48
2018-09-24T00:40:19.530Z,1023.52
2018-09-24T00:41:19.633Z,1023.52
2018-09-24T00:42:19.473Z,1023.57
2018-09-24T00:43:19.539Z,1023.58
2018-09-24T00:44:19.419Z,1023.61
2018-09-24T00:45:19.550Z,1023.62
2018-09-24T00:46:19.369Z,1023.67
2018-09-24T00:47:19.462Z,1023.66
2018-09-24T00:48:19.310Z,1023.72
2018-09-24T00:49:19.378Z,1023.76
2018-09-24T00:50:19.260Z,1023.75
2018-09-24T00:51:19.392Z,1023.72
2018-09-24T00:52:19.213Z,1023.77
2018-09-24T00:53:19.299Z,1023.79
2018-09-24T00:54:19.158Z,1023.76
2018-09-24T00:55:19.132Z,1023.78
2018-09-24T00:56:19.106Z,1023.84
2018-09-24T00:57:19.236Z,1023.82
2018-09-24T00:58:19.052Z,1023.83
2018-09-24T00:59:19.142Z,1023.84
2018-09-24T01:00:19.148Z,1023.89
2018-09-24T01:01:18.968Z,1023.84
2018-09-24T01:02:19.061Z,1023.88
2018-09-24T01:03:18.909Z,1023.92
2018-09-24T01:04:19.069Z,1023.95
2018-09-24T01:05:18.861Z,1023.97
2018-09-24T01:06:18.837Z,1024.02
2018-09-24T01:07:18.989Z,1024.07
2018-09-24T01:08:18.779Z,1024.00
2018-09-24T01:09:18.903Z,1024.11
2018-09-24T01:10:18.734Z,1024.09
2018-09-24T01:11:18.702Z,1024.13
2018-09-24T01:12:18.678Z,1024.13
2018-09-24T01:13:18.828Z,1024.17
2018-09-24T01:14:18.622Z,1024.16
2018-09-24T01:15:18.742Z,1024.19
2018-09-24T01:16:18.755Z,1024.17
2018-09-24T01:17:18.543Z,1024.14
2018-09-24T01:18:18.659Z,1024.21
2018-09-24T01:19:18.490Z,1024.23
2018-09-24T01:20:18.569Z,1024.24
2018-09-24T01:21:18.440Z,1024.26
2018-09-24T01:22:18.589Z,1024.30
2018-09-24T01:23:18.379Z,1024.30
2018-09-24T01:24:19.520Z,1024.36
2018-09-24T01:25:18.328Z,1024.41
2018-09-24T01:26:18.511Z,1024.39
2018-09-24T01:27:18.279Z,1024.44
2018-09-24T01:28:18.420Z,1024.44
2018-09-24T01:29:18.219Z,1024.44
2018-09-24T01:30:18.337Z,1024.48
2018-09-24T01:31:18.168Z,1024.46
2018-09-24T01:32:18.140Z,1024.49
2018-09-24T01:33:18.248Z,1024.46
2018-09-24T01:34:18.089Z,1024.51
2018-09-24T01:35:18.277Z,1024.54
2018-09-24T01:36:18.040Z,1024.56
2018-09-24T01:37:18.009Z,1024.57
2018-09-24T01:38:17.982Z,1024.59
2018-09-24T01:39:17.994Z,1024.65
2018-09-24T01:40:17.933Z,1024.62
2018-09-24T01:41:18.009Z,1024.64
2018-09-24T01:42:17.869Z,1024.65
2018-09-24T01:43:17.850Z,1024.62
2018-09-24T01:44:17.919Z,1024.67
2018-09-24T01:45:17.789Z,1024.64
2018-09-24T01:46:17.829Z,1024.64
2018-09-24T01:47:17.744Z,1024.64
2018-09-24T01:48:17.710Z,1024.65
2018-09-24T01:49:17.748Z,1024.64
2018-09-24T01:50:17.660Z,1024.73
2018-09-24T01:51:17.649Z,1024.75
2018-09-24T01:52:17.612Z,1024.75
2018-09-24T01:53:17.579Z,1024.75
2018-09-24T01:54:17.689Z,1024.76
2018-09-24T01:55:17.519Z,1024.83
2018-09-24T01:56:17.599Z,1024.77
2018-09-24T01:57:17.470Z,1024.76
2018-09-24T01:58:17.509Z,1024.80
2018-09-24T01:59:17.419Z,1024.80
2018-09-24T02:00:17.573Z,1024.83
2018-09-24T02:01:17.359Z,1024.83
2018-09-24T02:02:17.429Z,1024.80
2018-09-24T02:03:17.308Z,1024.83
2018-09-24T02:04:17.282Z,1024.81
2018-09-24T02:05:17.252Z,1024.82
2018-09-24T02:06:17.358Z,1024.84
2018-09-24T02:07:17.202Z,1024.85
2018-09-24T02:08:17.272Z,1024.85
2018-09-24T02:09:17.279Z,1024.86
2018-09-24T02:10:17.119Z,1024.88
2018-09-24T02:11:17.189Z,1024.87
2018-09-24T02:12:17.071Z,1024.91
2018-09-24T02:13:17.105Z,1024.87
2018-09-24T02:14:17.015Z,1024.88
2018-09-24T02:15:17.119Z,1024.91
2018-09-24T02:16:16.959Z,1024.91
2018-09-24T02:17:17.028Z,1024.89
2018-09-24T02:18:16.898Z,1024.89
2018-09-24T02:19:16.940Z,1024.91
2018-09-24T02:20:16.849Z,1024.94
2018-09-24T02:21:16.949Z,1024.92
2018-09-24T02:22:16.798Z,1024.98
2018-09-24T02:23:16.868Z,1024.98
2018-09-24T02:24:16.739Z,1024.99
2018-09-24T02:25:16.722Z,1024.99
2018-09-24T02:26:16.696Z,1025.00
2018-09-24T02:27:16.788Z,1025.05
2018-09-24T02:28:16.639Z,1025.06
2018-09-24T02:29:16.698Z,1025.08
2018-09-24T02:30:16.709Z,1025.04
2018-09-24T02:31:16.555Z,1025.09
2018-09-24T02:32:16.621Z,1025.12
2018-09-24T02:33:16.501Z,1025.15
2018-09-24T02:34:16.638Z,1025.13
2018-09-24T02:35:16.451Z,1025.17
2018-09-24T02:36:16.420Z,1025.19
2018-09-24T02:37:16.559Z,1025.21
2018-09-24T02:38:16.374Z,1025.24
2018-09-24T02:39:16.477Z,1025.21
2018-09-24T02:40:16.309Z,1025.28
2018-09-24T02:41:16.279Z,1025.27
2018-09-24T02:42:16.260Z,1025.23
2018-09-24T02:43:16.390Z,1025.24
2018-09-24T02:44:16.199Z,1025.28
2018-09-24T02:45:16.310Z,1025.22
2018-09-24T02:46:16.313Z,1025.25
2018-09-24T02:47:16.118Z,1025.26
2018-09-24T02:48:16.219Z,1025.25
2018-09-24T02:49:16.069Z,1025.30
2018-09-24T02:50:16.143Z,1025.31
2018-09-24T02:51:16.020Z,1025.33
2018-09-24T02:52:16.158Z,1025.36
2018-09-24T02:53:15.959Z,1025.36
2018-09-24T02:54:16.059Z,1025.36
2018-09-24T02:55:15.911Z,1025.43
2018-09-24T02:56:15.971Z,1025.40
2018-09-24T02:57:15.848Z,1025.39
2018-09-24T02:58:15.989Z,1025.47
2018-09-24T02:59:15.798Z,1025.46
2018-09-24T03:00:15.900Z,1025.49
2018-09-24T03:01:15.798Z,1025.44
2018-09-24T03:02:15.721Z,1025.49
2018-09-24T03:03:15.689Z,1025.53
2018-09-24T03:04:15.829Z,1025.51
2018-09-24T03:05:15.639Z,1025.49
2018-09-24T03:06:15.746Z,1025.51
2018-09-24T03:07:15.578Z,1025.54
2018-09-24T03:08:15.750Z,1025.51
2018-09-24T03:09:15.529Z,1025.54
2018-09-24T03:10:15.658Z,1025.55
2018-09-24T03:11:15.481Z,1025.57
2018-09-24T03:12:15.579Z,1025.59
2018-09-24T03:13:15.580Z,1025.60
2018-09-24T03:14:15.389Z,1025.65
2018-09-24T03:15:15.492Z,1025.62
2018-09-24T03:16:15.339Z,1025.63
2018-09-24T03:17:15.516Z,1025.69
2018-09-24T03:18:15.296Z,1025.63
2018-09-24T03:19:15.423Z,1025.63
2018-09-24T03:20:15.229Z,1025.66
2018-09-24T03:21:15.329Z,1025.71
2018-09-24T03:22:15.179Z,1025.68
2018-09-24T03:23:15.158Z,1025.70
2018-09-24T03:24:15.120Z,1025.71
2018-09-24T03:25:15.259Z,1025.75
2018-09-24T03:26:15.116Z,1025.69
2018-09-24T03:27:15.169Z,1025.73
2018-09-24T03:28:15.011Z,1025.86
2018-09-24T03:29:14.989Z,1025.83
2018-09-24T03:30:15.094Z,1025.79
2018-09-24T03:31:14.929Z,1025.82
2018-09-24T03:32:15.102Z,1025.78
2018-09-24T03:33:14.886Z,1025.77
2018-09-24T03:34:14.851Z,1025.85
2018-09-24T03:35:14.823Z,1025.83
2018-09-24T03:36:14.929Z,1025.86
2018-09-24T03:37:14.769Z,1025.89
2018-09-24T03:38:14.948Z,1025.90
2018-09-24T03:39:14.839Z,1025.95
2018-09-24T03:40:14.682Z,1025.92
2018-09-24T03:41:14.859Z,1025.98
2018-09-24T03:42:14.629Z,1025.97
2018-09-24T03:43:14.768Z,1025.97
2018-09-24T03:44:14.590Z,1026.00
2018-09-24T03:45:14.579Z,1026.01
2018-09-24T03:46:14.518Z,1026.01
2018-09-24T03:47:14.588Z,1026.05
2018-09-24T03:48:14.467Z,1026.05
2018-09-24T03:49:14.512Z,1026.09
2018-09-24T03:50:14.408Z,1026.08
2018-09-24T03:51:14.417Z,1026.10
2018-09-24T03:52:14.360Z,1026.14
2018-09-24T03:53:14.430Z,1026.17
2018-09-24T03:54:14.306Z,1026.18
2018-09-24T03:55:14.269Z,1026.16
2018-09-24T03:56:14.349Z,1026.16
2018-09-24T03:57:14.221Z,1026.18
2018-09-24T03:58:14.259Z,1026.14
2018-09-24T03:59:14.176Z,1026.17
2018-09-24T04:00:14.139Z,1026.16
2018-09-24T04:01:14.109Z,1026.23
2018-09-24T04:02:14.194Z,1026.21
2018-09-24T04:03:14.079Z,1026.25
2018-09-24T04:04:14.104Z,1026.28
2018-09-24T04:05:14.000Z,1026.27
2018-09-24T04:06:13.969Z,1026.30
2018-09-24T04:07:14.022Z,1026.24
2018-09-24T04:08:13.919Z,1026.26
2018-09-24T04:09:14.038Z,1026.25
2018-09-24T04:10:13.898Z,1026.27
2018-09-24T04:11:13.838Z,1026.30
2018-09-24T04:12:13.816Z,1026.29
2018-09-24T04:13:13.861Z,1026.32
2018-09-24T04:14:13.765Z,1026.34
2018-09-24T04:15:13.871Z,1026.36
2018-09-24T04:16:13.707Z,1026.32
2018-09-24T04:17:13.778Z,1026.33
2018-09-24T04:18:13.648Z,1026.33
2018-09-24T04:19:13.689Z,1026.38
2018-09-24T04:20:13.589Z,1026.41
2018-09-24T04:21:13.708Z,1026.36
2018-09-24T04:22:13.528Z,1026.40
2018-09-24T04:23:13.628Z,1026.39
2018-09-24T04:24:13.479Z,1026.40
2018-09-24T04:25:13.531Z,1026.43
2018-09-24T04:26:13.468Z,1026.43
2018-09-24T04:27:13.402Z,1026.46
2018-09-24T04:28:13.371Z,1026.44
2018-09-24T04:29:13.458Z,1026.46
2018-09-24T04:30:13.318Z,1026.48
2018-09-24T04:31:13.368Z,1026.43
2018-09-24T04:32:13.380Z,1026.46
2018-09-24T04:33:13.228Z,1026.49
2018-09-24T04:34:13.289Z,1026.55
2018-09-24T04:35:13.178Z,1026.48
2018-09-24T04:36:13.299Z,1026.55
2018-09-24T04:37:13.118Z,1026.60
2018-09-24T04:38:13.211Z,1026.59
2018-09-24T04:39:13.071Z,1026.58
2018-09-24T04:40:13.128Z,1026.60
2018-09-24T04:41:13.010Z,1026.60
2018-09-24T04:42:13.139Z,1026.61
2018-09-24T04:43:13.036Z,1026.65
2018-09-24T04:44:12.930Z,1026.65
2018-09-24T04:45:13.057Z,1026.71
2018-09-24T04:46:12.869Z,1026.76
2018-09-24T04:47:12.967Z,1026.74
2018-09-24T04:48:12.979Z,1026.79
2018-09-24T04:49:12.849Z,1026.79
2018-09-24T04:50:12.890Z,1026.79
2018-09-24T04:51:12.738Z,1026.80
2018-09-24T04:52:12.802Z,1026.84
2018-09-24T04:53:12.685Z,1026.87
2018-09-24T04:54:12.816Z,1026.88
2018-09-24T04:55:12.635Z,1026.94
2018-09-24T04:56:12.620Z,1026.85
2018-09-24T04:57:12.568Z,1026.87
2018-09-24T04:58:12.646Z,1026.86
2018-09-24T04:59:12.518Z,1026.90
2018-09-24T05:00:12.489Z,1026.89
2018-09-24T05:01:12.563Z,1026.94
2018-09-24T05:02:12.432Z,1026.97
2018-09-24T05:03:12.478Z,1027.01
2018-09-24T05:04:12.478Z,1027.00
2018-09-24T05:05:12.348Z,1027.04
2018-09-24T05:06:12.389Z,1027.02
2018-09-24T05:07:12.290Z,1027.02
2018-09-24T05:08:12.299Z,1027.04
2018-09-24T05:09:12.250Z,1027.06
2018-09-24T05:10:12.364Z,1027.02
2018-09-24T05:11:12.182Z,1027.11
2018-09-24T05:12:12.229Z,1027.09
2018-09-24T05:13:12.132Z,1027.07
2018-09-24T05:14:12.140Z,1027.14
2018-09-24T05:15:12.069Z,1027.16
2018-09-24T05:16:12.204Z,1027.16
2018-09-24T05:17:12.024Z,1027.15
2018-09-24T05:18:12.059Z,1027.18
2018-09-24T05:19:11.959Z,1027.23
2018-09-24T05:20:11.982Z,1027.21
2018-09-24T05:21:11.923Z,1027.27
2018-09-24T05:22:11.988Z,1027.25
2018-09-24T05:23:11.850Z,1027.26
2018-09-24T05:24:11.898Z,1027.28
2018-09-24T05:25:11.908Z,1027.25
2018-09-24T05:26:11.777Z,1027.26
2018-09-24T05:27:11.917Z,1027.31
2018-09-24T05:28:11.712Z,1027.29
2018-09-24T05:29:11.737Z,1027.26
2018-09-24T05:30:11.662Z,1027.31
2018-09-24T05:31:11.630Z,1027.33
2018-09-24T05:32:11.656Z,1027.38
2018-09-24T05:33:11.578Z,1027.38
2018-09-24T05:35:43.228Z,1027.41
2018-09-24T05:36:43.189Z,1027.45
2018-09-24T05:37:43.178Z,1027.50
2018-09-24T05:38:43.138Z,1027.49
2018-09-24T05:39:43.198Z,1027.51
2018-09-24T05:40:43.078Z,1027.52
2018-09-24T05:41:43.052Z,1027.52
2018-09-24T05:42:43.119Z,1027.53
2018-09-24T05:43:43.011Z,1027.56
2018-09-24T05:44:43.027Z,1027.51
2018-09-24T05:45:42.939Z,1027.56
2018-09-24T05:46:42.908Z,1027.55
2018-09-24T05:47:42.948Z,1027.59
2018-09-24T05:48:42.862Z,1027.56
2018-09-24T05:49:42.857Z,1027.64
2018-09-24T05:50:42.797Z,1027.63
2018-09-24T05:51:42.782Z,1027.68
2018-09-24T05:52:42.748Z,1027.65
2018-09-24T05:53:42.789Z,1027.65
2018-09-24T05:54:42.688Z,1027.67
2018-09-24T05:55:42.697Z,1027.70
2018-09-24T05:56:42.637Z,1027.72
2018-09-24T05:57:42.709Z,1027.76
2018-09-24T05:58:42.586Z,1027.81
2018-09-24T05:59:42.620Z,1027.77
2018-09-24T06:00:42.529Z,1027.78
2018-09-24T06:01:42.528Z,1027.79
2018-09-24T06:02:42.470Z,1027.80
2018-09-24T06:03:42.548Z,1027.81
2018-09-24T06:04:42.556Z,1027.78
2018-09-24T06:05:42.456Z,1027.85
2018-09-24T06:06:42.359Z,1027.86
2018-09-24T06:07:42.331Z,1027.89
2018-09-24T06:08:42.309Z,1027.89
2018-09-24T06:09:42.390Z,1027.94
2018-09-24T06:10:42.256Z,1027.85
2018-09-24T06:11:42.298Z,1027.85
2018-09-24T06:12:42.301Z,1027.82
2018-09-24T06:13:42.198Z,1027.84
2018-09-24T06:14:42.227Z,1027.83
2018-09-24T06:15:42.112Z,1027.86
2018-09-24T06:16:42.118Z,1027.92
2018-09-24T06:17:42.058Z,1027.92
2018-09-24T06:18:42.140Z,1027.90
2018-09-24T06:19:41.999Z,1027.91
2018-09-24T06:20:42.058Z,1027.94
2018-09-24T06:21:41.948Z,1027.95
2018-09-24T06:22:41.969Z,1027.97
2018-09-24T06:23:41.891Z,1027.99
2018-09-24T06:24:41.878Z,1028.00
2018-09-24T06:25:41.848Z,1028.06
2018-09-24T06:26:41.897Z,1028.10
2018-09-24T06:27:41.780Z,1028.06
2018-09-24T06:28:41.749Z,1028.05
2018-09-24T06:29:41.809Z,1028.10
2018-09-24T06:30:41.698Z,1028.10
2018-09-24T06:31:41.721Z,1028.06
2018-09-24T06:32:41.648Z,1028.11
2018-09-24T06:33:41.621Z,1028.15
2018-09-24T06:34:41.589Z,1028.20
2018-09-24T06:35:41.648Z,1028.16
2018-09-24T06:36:41.539Z,1028.17
2018-09-24T06:37:41.561Z,1028.20
2018-09-24T06:38:41.478Z,1028.17
2018-09-24T06:39:41.452Z,1028.17
2018-09-24T06:40:41.481Z,1028.17
2018-09-24T06:41:41.398Z,1028.20
2018-09-24T06:42:41.388Z,1028.18
2018-09-24T06:43:41.340Z,1028.20
2018-09-24T06:44:41.311Z,1028.23
2018-09-24T06:45:41.291Z,1028.22
2018-09-24T06:46:41.318Z,1028.25
2018-09-24T06:47:41.229Z,1028.27
2018-09-24T06:48:41.228Z,1028.29
2018-09-24T06:49:41.272Z,1028.31
2018-09-24T06:50:41.159Z,1028.29
2018-09-24T06:51:41.151Z,1028.34
2018-09-24T06:52:41.099Z,1028.35
2018-09-24T06:53:41.159Z,1028.37
2018-09-24T06:54:41.040Z,1028.37
2018-09-24T06:55:41.068Z,1028.38
2018-09-24T06:56:40.988Z,1028.40
2018-09-24T06:57:40.986Z,1028.45
2018-09-24T06:58:40.929Z,1028.44
2018-09-24T06:59:41.016Z,1028.45
2018-09-24T07:00:40.881Z,1028.47
2018-09-24T07:01:40.909Z,1028.55
2018-09-24T07:02:40.819Z,1028.52
2018-09-24T07:03:40.820Z,1028.51
2018-09-24T07:04:40.776Z,1028.53
2018-09-24T07:05:40.797Z,1028.54
2018-09-24T07:06:40.738Z,1028.53
2018-09-24T07:07:40.688Z,1028.58
2018-09-24T07:08:40.767Z,1028.61
2018-09-24T07:09:40.630Z,1028.57
2018-09-24T07:10:40.600Z,1028.59
2018-09-24T07:11:40.579Z,1028.58
2018-09-24T07:12:40.579Z,1028.63
2018-09-24T07:13:40.519Z,1028.64
2018-09-24T07:14:40.589Z,1028.66
2018-09-24T07:15:40.477Z,1028.66
2018-09-24T07:16:40.500Z,1028.74
2018-09-24T07:17:40.417Z,1028.73
2018-09-24T07:18:40.436Z,1028.74
2018-09-24T07:19:40.359Z,1028.75
2018-09-24T07:20:40.429Z,1028.75
2018-09-24T07:21:40.339Z,1028.72
2018-09-24T07:22:40.283Z,1028.75
2018-09-24T07:23:40.350Z,1028.74
2018-09-24T07:24:40.222Z,1028.78
2018-09-24T07:25:40.268Z,1028.76
2018-09-24T07:26:40.169Z,1028.78
2018-09-24T07:27:40.193Z,1028.81
2018-09-24T07:28:40.119Z,1028.84
2018-09-24T07:29:40.189Z,1028.85
2018-09-24T07:30:40.068Z,1028.89
2018-09-24T07:31:40.041Z,1028.94
2018-09-24T07:32:40.023Z,1028.98
2018-09-24T07:33:40.009Z,1028.99
2018-09-24T07:34:39.960Z,1029.01
2018-09-24T07:35:40.029Z,1029.01
2018-09-24T07:36:39.900Z,1029.01
2018-09-24T07:37:39.879Z,1029.04
2018-09-24T07:38:39.941Z,1029.05
2018-09-24T07:39:39.820Z,1029.06
2018-09-24T07:40:39.859Z,1029.11
2018-09-24T07:41:39.777Z,1029.13
2018-09-24T07:42:39.739Z,1029.16
2018-09-24T07:43:39.779Z,1029.16
2018-09-24T07:44:39.688Z,1029.15
2018-09-24T07:45:39.689Z,1029.19
2018-09-24T07:46:39.641Z,1029.24
2018-09-24T07:47:39.608Z,1029.24
2018-09-24T07:48:39.579Z,1029.28
2018-09-24T07:49:39.611Z,1029.32
2018-09-24T07:50:39.536Z,1029.33
2018-09-24T07:51:39.519Z,1029.36
2018-09-24T07:52:39.476Z,1029.43
2018-09-24T07:53:39.458Z,1029.39
2018-09-24T07:54:39.440Z,1029.38
2018-09-24T07:55:39.441Z,1029.39
2018-09-24T07:56:39.460Z,1029.43
2018-09-24T07:57:39.359Z,1029.51
2018-09-24T07:58:39.319Z,1029.44
2018-09-24T07:59:39.302Z,1029.47
2018-09-24T08:00:39.379Z,1029.51
2018-09-24T08:01:39.241Z,1029.52
2018-09-24T08:02:39.307Z,1029.59
2018-09-24T08:03:39.299Z,1029.60
2018-09-24T08:04:39.166Z,1029.67
2018-09-24T08:05:39.226Z,1029.72
2018-09-24T08:06:39.113Z,1029.75
2018-09-24T08:07:39.130Z,1029.78
2018-09-24T08:08:39.063Z,1029.76
2018-09-24T08:09:39.142Z,1029.81
2018-09-24T08:10:39.009Z,1029.86
2018-09-24T08:11:39.049Z,1029.87
2018-09-24T08:12:38.948Z,1029.87
2018-09-24T08:13:38.972Z,1029.88
2018-09-24T08:14:38.901Z,1029.93
2018-09-24T08:15:38.988Z,1029.95
2018-09-24T08:16:38.849Z,1029.98
2018-09-24T08:17:38.888Z,1029.99
2018-09-24T08:18:38.805Z,1030.01
2018-09-24T08:19:38.768Z,1030.06
2018-09-24T08:20:38.808Z,1030.10
2018-09-24T08:21:38.719Z,1030.06
2018-09-24T08:22:38.725Z,1030.08
2018-09-24T08:23:38.669Z,1030.14
2018-09-24T08:24:38.648Z,1030.13
2018-09-24T08:25:38.649Z,1030.14
2018-09-24T08:26:38.601Z,1030.16
2018-09-24T08:27:38.658Z,1030.19
2018-09-24T08:28:38.548Z,1030.21
2018-09-24T08:29:38.519Z,1030.21
2018-09-24T08:30:38.507Z,1030.20
2018-09-24T08:31:38.588Z,1030.22
2018-09-24T08:32:38.449Z,1030.30
2018-09-24T08:33:38.497Z,1030.27
2018-09-24T08:34:38.402Z,1030.30
2018-09-24T08:35:38.402Z,1030.26
2018-09-24T08:36:38.348Z,1030.26
2018-09-24T08:37:38.412Z,1030.22
2018-09-24T08:38:38.302Z,1030.27
2018-09-24T08:39:38.332Z,1030.31
2018-09-24T08:40:38.251Z,1030.28
2018-09-24T08:41:38.241Z,1030.28
2018-09-24T08:42:38.199Z,1030.30
2018-09-24T08:43:38.248Z,1030.24
2018-09-24T08:44:38.148Z,1030.24
2018-09-24T08:45:38.118Z,1030.25
2018-09-24T08:46:38.105Z,1030.22
2018-09-24T08:47:38.182Z,1030.20
2018-09-24T08:48:38.049Z,1030.26
2018-09-24T08:49:38.095Z,1030.23
2018-09-24T08:50:38.005Z,1030.26
2018-09-24T08:51:38.008Z,1030.27
2018-09-24T08:52:37.948Z,1030.29
2018-09-24T08:53:38.026Z,1030.32
2018-09-24T08:54:37.898Z,1030.29
2018-09-24T08:55:37.879Z,1030.31
2018-09-24T08:56:37.890Z,1030.31
2018-09-24T08:57:37.955Z,1030.31
2018-09-24T08:58:37.808Z,1030.35
2018-09-24T08:59:37.857Z,1030.34
2018-09-24T09:00:37.758Z,1030.31
2018-09-24T09:01:37.768Z,1030.33
2018-09-24T09:02:37.749Z,1030.36
2018-09-24T09:03:37.780Z,1030.43
2018-09-24T09:04:37.660Z,1030.42
2018-09-24T09:05:37.688Z,1030.36
2018-09-24T09:06:37.608Z,1030.37
2018-09-24T09:07:37.609Z,1030.42
2018-09-24T09:08:37.565Z,1030.50
2018-09-24T09:09:37.619Z,1030.53
2018-09-24T09:10:37.519Z,1030.55
2018-09-24T09:11:37.489Z,1030.55
2018-09-24T09:12:37.542Z,1030.55
2018-09-24T09:13:37.450Z,1030.80
2018-09-24T09:14:37.452Z,1030.97
2018-09-24T09:15:37.403Z,1031.11
2018-09-24T09:16:37.380Z,1031.10
2018-09-24T09:17:37.369Z,1031.01
2018-09-24T09:18:37.332Z,1030.90
2018-09-24T09:19:37.379Z,1031.11
2018-09-24T09:20:37.278Z,1031.07
2018-09-24T09:21:37.259Z,1031.19
2018-09-24T09:22:37.298Z,1031.14
2018-09-24T09:23:37.227Z,1031.16
2018-09-24T09:24:37.208Z,1031.19
2018-09-24T09:25:37.170Z,1031.17
2018-09-24T09:26:37.148Z,1031.21
2018-09-24T09:27:37.132Z,1031.27
2018-09-24T09:28:37.146Z,1031.19
2018-09-24T09:29:37.079Z,1031.19
2018-09-24T09:30:37.152Z,1031.20
2018-09-24T09:31:37.062Z,1031.14
2018-09-24T09:32:37.027Z,1031.18
2018-09-24T09:33:37.077Z,1031.21
2018-09-24T09:34:36.983Z,1031.20
2018-09-24T09:35:36.978Z,1031.33
2018-09-24T09:36:36.988Z,1031.23
2018-09-24T09:37:36.913Z,1031.22
2018-09-24T09:38:36.999Z,1031.23
2018-09-24T09:39:36.873Z,1031.25
2018-09-24T09:40:36.909Z,1031.29
2018-09-24T09:41:36.840Z,1031.28
2018-09-24T09:42:36.808Z,1031.22
2018-09-24T09:43:36.830Z,1031.24
2018-09-24T09:44:36.812Z,1031.23
2018-09-24T09:45:36.849Z,1031.25
2018-09-24T09:46:36.734Z,1031.27
2018-09-24T09:47:36.718Z,1031.29
2018-09-24T09:48:36.769Z,1031.33
2018-09-24T09:49:36.672Z,1031.33
2018-09-24T09:50:36.682Z,1031.45
2018-09-24T09:51:36.631Z,1031.61
2018-09-24T09:52:36.612Z,1031.92
2018-09-24T09:53:36.745Z,1032.14
2018-09-24T09:54:36.572Z,1032.40
2018-09-24T09:55:36.609Z,1032.48
2018-09-24T09:56:36.536Z,1032.57
2018-09-24T09:57:36.511Z,1032.51
2018-09-24T09:58:36.528Z,1032.44
2018-09-24T09:59:36.478Z,1032.40
2018-09-24T10:00:36.538Z,1032.31
2018-09-24T10:01:36.438Z,1032.39
2018-09-24T10:02:36.418Z,1032.42
2018-09-24T10:03:36.459Z,1032.39
2018-09-24T10:04:36.423Z,1032.35
2018-09-24T10:05:36.483Z,1032.42
2018-09-24T10:06:36.341Z,1031.43
2018-09-24T10:07:36.318Z,1031.66
2018-09-24T10:08:36.308Z,1031.67
2018-09-24T10:09:36.405Z,1031.04
2018-09-24T10:10:36.268Z,1030.94
2018-09-24T10:11:36.419Z,1030.94
2018-09-24T10:12:36.229Z,1030.94
2018-09-24T10:13:36.208Z,1030.95
2018-09-24T10:14:36.346Z,1031.07
2018-09-24T10:15:36.186Z,1031.36
2018-09-24T10:16:36.250Z,1031.00
2018-09-24T10:17:36.139Z,1030.94
2018-09-24T10:18:36.127Z,1031.18
2018-09-24T10:19:36.099Z,1030.96
2018-09-24T10:20:36.180Z,1030.96
2018-09-24T10:21:36.069Z,1030.84
2018-09-24T10:22:36.241Z,1030.81
2018-09-24T10:23:36.192Z,1030.76
2018-09-24T10:24:36.013Z,1031.05
2018-09-24T10:25:36.112Z,1030.75
2018-09-24T10:26:35.970Z,1030.72
2018-09-24T10:27:36.127Z,1030.71
2018-09-24T10:28:35.935Z,1030.71
2018-09-24T10:29:36.037Z,1030.70
2018-09-24T10:30:35.887Z,1030.72
2018-09-24T10:31:36.057Z,1031.66
2018-09-24T10:32:35.851Z,1031.56
2018-09-24T10:33:35.975Z,1031.73
2018-09-24T10:34:35.969Z,1031.85
2018-09-24T10:35:35.794Z,1031.81
2018-09-24T10:36:35.879Z,1031.84
2018-09-24T10:37:35.748Z,1031.88
2018-09-24T10:38:35.890Z,1031.97
2018-09-24T10:39:35.929Z,1032.00
2018-09-24T10:40:35.687Z,1031.65
2018-09-24T10:41:35.814Z,1031.97
2018-09-24T10:42:35.657Z,1031.79
2018-09-24T10:43:35.820Z,1031.25
2018-09-24T10:44:35.599Z,1030.82
2018-09-24T10:45:35.732Z,1031.61
2018-09-24T10:46:35.573Z,1031.87
2018-09-24T10:47:35.749Z,1031.74
2018-09-24T10:48:35.530Z,1031.27
2018-09-24T10:49:35.661Z,1030.95
2018-09-24T10:50:35.498Z,1031.48
2018-09-24T10:51:35.670Z,1030.87
2018-09-24T10:52:35.440Z,1030.83
2018-09-24T10:53:35.589Z,1030.90
2018-09-24T10:54:35.410Z,1030.89
2018-09-24T10:55:35.391Z,1030.88
2018-09-24T10:56:35.515Z,1031.33
2018-09-24T10:57:35.349Z,1030.92
2018-09-24T10:58:35.528Z,1030.87
2018-09-24T10:59:35.362Z,1030.81
2018-09-24T11:00:35.292Z,1030.82
2018-09-24T11:01:35.293Z,1031.81
2018-09-24T11:02:35.448Z,1031.63
2018-09-24T11:03:35.238Z,1031.55
2018-09-24T11:04:35.357Z,1031.55
2018-09-24T11:05:35.358Z,1031.51
2018-09-24T11:06:35.180Z,1031.78
2018-09-24T11:07:35.378Z,1031.80
2018-09-24T11:08:35.140Z,1031.68
2018-09-24T11:09:35.189Z,1031.54
2018-09-24T11:10:35.202Z,1031.57
2018-09-24T11:11:35.087Z,1031.58
2018-09-24T11:12:35.120Z,1031.65
2018-09-24T11:13:35.062Z,1031.67
2018-09-24T11:14:35.119Z,1031.41
2018-09-24T11:15:35.036Z,1031.75
2018-09-24T11:16:35.189Z,1031.64
2018-09-24T11:17:35.178Z,1031.46
2018-09-24T11:18:35.052Z,1031.59
2018-09-24T11:19:34.928Z,1031.10
2018-09-24T11:20:34.957Z,1031.12
2018-09-24T11:21:34.898Z,1031.13
2018-09-24T11:22:34.961Z,1031.07
2018-09-24T11:23:34.938Z,1031.03
2018-09-24T11:24:35.896Z,1031.08
2018-09-24T11:25:34.820Z,1031.32
2018-09-24T11:26:34.809Z,1031.44
2018-09-24T11:27:34.888Z,1031.41
2018-09-24T11:28:34.767Z,1031.45
2018-09-24T11:29:34.856Z,1031.46
2018-09-24T11:30:34.730Z,1031.29
2018-09-24T11:31:34.710Z,1031.30
2018-09-24T11:32:34.738Z,1031.38
2018-09-24T11:33:34.687Z,1031.21
2018-09-24T11:36:06.782Z,1031.23
2018-09-24T11:37:06.594Z,1031.17
2018-09-24T11:38:59.540Z,1031.12
2018-09-24T11:39:59.450Z,1031.26
2018-09-24T11:41:52.331Z,1031.00
2018-09-24T11:42:52.301Z,1031.19
2018-09-24T11:44:45.251Z,1031.29
2018-09-24T11:45:45.151Z,1031.03
2018-09-24T11:47:38.045Z,1031.30
2018-09-24T11:48:38.087Z,1031.05
2018-09-24T11:50:30.947Z,1030.95
2018-09-24T11:51:30.856Z,1030.92
2018-09-24T11:53:23.806Z,1031.02
2018-09-24T11:54:23.717Z,1030.96
2018-09-24T11:56:16.667Z,1031.00
2018-09-24T11:57:16.569Z,1031.01
2018-09-24T11:59:09.508Z,1031.01
2018-09-24T12:00:09.421Z,1031.00
2018-09-24T12:01:09.492Z,1031.01
2018-09-24T12:02:09.439Z,1030.97
2018-09-24T12:03:09.367Z,1030.97
2018-09-24T12:04:09.347Z,1030.94
2018-09-24T12:05:09.428Z,1030.96
2018-09-24T12:06:09.307Z,1030.97
2018-09-24T12:07:09.338Z,1030.99
2018-09-24T12:08:09.270Z,1031.02
2018-09-24T12:09:09.251Z,1031.13
2018-09-24T12:10:09.299Z,1031.12
2018-09-24T12:11:09.210Z,1031.11
2018-09-24T12:12:09.272Z,1031.14
2018-09-24T12:13:09.167Z,1031.27
2018-09-24T12:14:09.147Z,1031.32
2018-09-24T12:15:09.126Z,1031.46